createdAt,value
2022-09-21T08:11:14.533Z,1021.15
2022-09-21T08:12:14.511Z,1021.13
2022-09-21T08:13:14.527Z,1021.08
2022-09-21T08:14:14.537Z,1021.09
2022-09-21T08:15:37.007Z,1021.06
2022-09-21T08:18:40.420Z,1020.97
2022-09-21T08:29:30.824Z,1020.80
2022-09-21T08:30:30.828Z,1020.80
2022-09-21T08:31:30.883Z,1020.74
2022-09-21T08:32:49.788Z,1020.77
2022-09-21T08:33:30.865Z,1020.76
2022-09-21T08:34:30.880Z,1020.78
2022-09-21T08:36:13.460Z,1020.73
2022-09-21T08:37:13.462Z,1020.72
2022-09-21T08:38:13.487Z,1020.73
2022-09-21T08:39:16.932Z,1020.67
2022-09-21T08:40:13.563Z,1020.69
2022-09-21T08:41:13.535Z,1020.66
2022-09-21T08:42:13.546Z,1020.65
2022-09-21T08:43:13.568Z,1020.66
2022-09-21T08:44:13.582Z,1020.64
2022-09-21T08:45:13.619Z,1020.63
2022-09-21T08:47:11.197Z,1020.59
2022-09-21T08:48:11.224Z,1020.63
2022-09-21T08:49:11.239Z,1020.63
2022-09-21T08:50:11.260Z,1020.61
2022-09-21T08:51:11.268Z,1020.61
2022-09-21T08:52:13.865Z,1020.61
2022-09-21T14:45:33.230Z,1019.24
2022-09-21T14:46:33.336Z,1019.25
2022-09-21T14:47:33.252Z,1019.19
2022-09-21T14:48:33.274Z,1019.24
2022-09-21T14:50:15.906Z,1019.22
2022-09-21T14:51:15.857Z,1019.24
2022-09-21T15:03:18.413Z,1019.19
2022-09-21T15:04:18.574Z,1019.16
2022-09-21T15:05:18.424Z,1019.18
2022-09-21T15:06:18.433Z,1019.18
2022-09-21T16:18:37.126Z,1019.20
2022-09-21T16:21:00.163Z,1019.25
2022-09-21T16:21:54.737Z,1019.21
2022-09-21T16:22:54.767Z,1019.26
2022-09-21T16:24:42.316Z,1019.24
2022-09-21T16:25:42.333Z,1019.26
2022-09-21T16:27:24.890Z,1019.25
2022-09-21T16:31:10.844Z,1019.30
2022-09-21T16:32:10.817Z,1019.33
2022-09-21T16:33:10.819Z,1019.38
2022-09-21T16:34:10.860Z,1019.38
2022-09-21T16:37:36.712Z,1019.39
2022-09-21T16:41:12.944Z,1019.43
2022-09-21T16:42:12.615Z,1019.42
2022-09-21T16:43:12.634Z,1019.44
2022-09-21T16:44:12.630Z,1019.42
2022-09-21T16:45:12.642Z,1019.41
2022-09-21T16:46:12.719Z,1019.41
2022-09-21T16:47:12.663Z,1019.42
2022-09-21T16:48:12.674Z,1019.40
2022-09-21T16:49:12.684Z,1019.43
2022-09-21T16:50:12.718Z,1019.43
2022-09-21T16:51:12.711Z,1019.43
2022-09-21T16:52:12.719Z,1019.43
2022-09-21T16:53:12.727Z,1019.43
2022-09-21T16:54:12.741Z,1019.41
2022-09-21T16:55:12.756Z,1019.46
2022-09-21T16:56:12.761Z,1019.47
2022-09-21T16:57:12.777Z,1019.46
2022-09-21T16:58:12.790Z,1019.48
2022-09-21T16:59:12.793Z,1019.46
2022-09-21T17:00:13.831Z,1019.50
2022-09-21T17:01:12.956Z,1019.52
2022-09-21T17:02:12.923Z,1019.54
2022-09-21T17:03:12.835Z,1019.53
2022-09-21T17:04:12.846Z,1019.55
2022-09-21T17:05:12.857Z,1019.55
2022-09-21T17:06:12.895Z,1019.53
2022-09-21T17:07:12.878Z,1019.53
2022-09-21T17:09:29.192Z,1019.55
2022-09-21T17:10:25.506Z,1019.54
2022-09-21T17:11:25.521Z,1019.56
2022-09-21T17:12:25.538Z,1019.57
2022-09-21T17:13:25.544Z,1019.58
2022-09-21T17:14:25.548Z,1019.57
2022-09-21T17:15:25.558Z,1019.53
2022-09-21T17:16:25.594Z,1019.58
2022-09-21T17:17:25.585Z,1019.58
2022-09-21T17:18:25.624Z,1019.58
2022-09-21T17:19:25.613Z,1019.54
2022-09-21T17:20:25.616Z,1019.57
2022-09-21T17:21:25.638Z,1019.57
2022-09-21T17:22:25.629Z,1019.57
2022-09-21T17:23:25.644Z,1019.61
2022-09-21T17:24:46.332Z,1019.59
2022-09-21T17:25:25.670Z,1019.61
2022-09-21T17:26:25.678Z,1019.62
2022-09-21T17:27:25.678Z,1019.58
2022-09-21T17:28:25.698Z,1019.64
2022-09-21T17:29:25.706Z,1019.64
2022-09-21T17:30:25.710Z,1019.62
2022-09-21T17:31:25.777Z,1019.64
2022-09-21T17:32:25.737Z,1019.66
2022-09-21T17:33:25.747Z,1019.69
2022-09-21T17:34:25.759Z,1019.68
2022-09-21T17:35:25.766Z,1019.69
2022-09-21T17:36:25.778Z,1019.70
2022-09-21T17:37:25.800Z,1019.66
2022-09-21T17:38:25.792Z,1019.65
2022-09-21T17:39:25.810Z,1019.68
2022-09-21T17:40:25.874Z,1019.64
2022-09-21T17:41:25.829Z,1019.70
2022-09-21T17:42:26.127Z,1019.66
2022-09-21T17:43:25.849Z,1019.71
2022-09-21T17:44:25.858Z,1019.73
2022-09-21T17:45:25.860Z,1019.70
2022-09-21T17:46:25.949Z,1019.72
2022-09-21T17:47:25.887Z,1019.73
2022-09-21T19:31:08.914Z,1020.18
2022-09-21T19:32:08.798Z,1020.17
2022-09-21T19:33:08.811Z,1020.16
2022-09-21T19:34:08.819Z,1020.16
2022-09-21T19:35:08.820Z,1020.13
2022-09-21T21:01:48.594Z,1020.22
2022-09-21T21:02:48.527Z,1020.25
2022-09-21T21:03:48.640Z,1020.26
2022-09-21T21:04:48.547Z,1020.26
2022-09-21T21:05:48.551Z,1020.25
2022-09-21T21:06:48.550Z,1020.26
2022-09-21T21:07:48.562Z,1020.24
2022-09-21T21:08:48.570Z,1020.23
2022-09-21T21:26:15.927Z,1020.27
2022-09-21T21:27:15.918Z,1020.24
2022-09-21T21:28:15.924Z,1020.25
2022-09-21T21:29:15.923Z,1020.27
2022-09-21T21:30:15.930Z,1020.24
2022-09-21T21:31:19.454Z,1020.26
2022-09-21T21:32:15.972Z,1020.22
2022-09-21T21:33:15.952Z,1020.23
2022-09-21T21:34:16.156Z,1020.25
2022-09-21T21:35:18.591Z,1020.30
2022-09-21T21:36:18.589Z,1020.28
2022-09-21T21:37:15.975Z,1020.27
2022-09-21T21:38:15.989Z,1020.25
2022-09-21T21:39:15.995Z,1020.29
2022-09-21T21:40:19.660Z,1020.31
2022-09-21T21:41:16.002Z,1020.29
2022-09-21T21:42:16.026Z,1020.27
2022-09-21T23:44:21.784Z,1020.34
2022-09-21T23:45:21.767Z,1020.31
